sensor_id;sensor_type;location;lat;lon;timestamp;P1;durP1;ratioP1;P2;durP2;ratioP2
1775;SDS011;885;42.626;23.200;2023-06-19T00:01:41;6.47;;;5.70;;
1775;SDS011;885;42.626;23.200;2023-06-19T00:04:07;5.77;;;5.23;;
1775;SDS011;885;42.626;23.200;2023-06-19T00:06:35;7.43;;;5.93;;
1775;SDS011;885;42.626;23.200;2023-06-19T00:09:02;6.10;;;5.50;;
1775;SDS011;885;42.626;23.200;2023-06-19T00:11:29;6.60;;;6.00;;
1775;SDS011;885;42.626;23.200;2023-06-19T00:13:57;8.03;;;7.03;;
1775;SDS011;885;42.626;23.200;2023-06-19T00:16:24;6.73;;;5.50;;
1775;SDS011;885;42.626;23.200;2023-06-19T00:18:51;6.70;;;6.00;;
1775;SDS011;885;42.626;23.200;2023-06-19T00:21:21;6.03;;;5.23;;
1775;SDS011;885;42.626;23.200;2023-06-19T00:23:49;6.47;;;5.87;;
1775;SDS011;885;42.626;23.200;2023-06-19T00:26:16;5.47;;;4.87;;
1775;SDS011;885;42.626;23.200;2023-06-19T00:28:44;5.90;;;5.30;;
1775;SDS011;885;42.626;23.200;2023-06-19T00:31:15;6.23;;;5.70;;
1775;SDS011;885;42.626;23.200;2023-06-19T00:33:42;6.20;;;5.60;;
1775;SDS011;885;42.626;23.200;2023-06-19T00:36:10;7.93;;;6.70;;
1775;SDS011;885;42.626;23.200;2023-06-19T00:38:37;5.17;;;4.67;;
1775;SDS011;885;42.626;23.200;2023-06-19T00:41:04;6.00;;;5.50;;
1775;SDS011;885;42.626;23.200;2023-06-19T00:43:31;6.13;;;5.60;;
1775;SDS011;885;42.626;23.200;2023-06-19T00:45:58;7.93;;;5.53;;
1775;SDS011;885;42.626;23.200;2023-06-19T00:48:27;6.37;;;5.87;;
1775;SDS011;885;42.626;23.200;2023-06-19T00:50:55;7.30;;;5.90;;
1775;SDS011;885;42.626;23.200;2023-06-19T00:53:23;6.50;;;5.30;;
1775;SDS011;885;42.626;23.200;2023-06-19T00:55:51;5.87;;;5.23;;
1775;SDS011;885;42.626;23.200;2023-06-19T00:58:19;7.13;;;5.47;;
1775;SDS011;885;42.626;23.200;2023-06-19T01:00:46;5.77;;;5.10;;
1775;SDS011;885;42.626;23.200;2023-06-19T01:03:13;7.13;;;5.73;;
1775;SDS011;885;42.626;23.200;2023-06-19T01:05:42;6.50;;;5.90;;
1775;SDS011;885;42.626;23.200;2023-06-19T01:08:12;6.77;;;5.50;;
1775;SDS011;885;42.626;23.200;2023-06-19T01:10:49;7.67;;;5.80;;
1775;SDS011;885;42.626;23.200;2023-06-19T01:13:19;6.37;;;5.77;;
1775;SDS011;885;42.626;23.200;2023-06-19T01:15:52;7.07;;;6.37;;
1775;SDS011;885;42.626;23.200;2023-06-19T01:18:20;8.17;;;5.10;;
1775;SDS011;885;42.626;23.200;2023-06-19T01:20:50;6.00;;;5.50;;
1775;SDS011;885;42.626;23.200;2023-06-19T01:23:18;6.93;;;5.53;;
1775;SDS011;885;42.626;23.200;2023-06-19T01:25:45;6.13;;;5.63;;
1775;SDS011;885;42.626;23.200;2023-06-19T01:28:12;6.30;;;5.70;;
1775;SDS011;885;42.626;23.200;2023-06-19T01:30:39;8.03;;;7.23;;
1775;SDS011;885;42.626;23.200;2023-06-19T01:33:09;7.67;;;6.87;;
1775;SDS011;885;42.626;23.200;2023-06-19T01:35:42;7.97;;;5.87;;
1775;SDS011;885;42.626;23.200;2023-06-19T01:38:09;11.60;;;5.80;;
1775;SDS011;885;42.626;23.200;2023-06-19T01:40:38;7.50;;;6.23;;
1775;SDS011;885;42.626;23.200;2023-06-19T01:43:07;6.50;;;5.90;;
1775;SDS011;885;42.626;23.200;2023-06-19T01:45:34;9.27;;;6.60;;
1775;SDS011;885;42.626;23.200;2023-06-19T01:48:02;6.70;;;6.10;;
1775;SDS011;885;42.626;23.200;2023-06-19T01:50:30;7.13;;;6.37;;
1775;SDS011;885;42.626;23.200;2023-06-19T01:52:56;8.20;;;7.40;;
1775;SDS011;885;42.626;23.200;2023-06-19T01:55:23;6.80;;;6.20;;
1775;SDS011;885;42.626;23.200;2023-06-19T01:57:51;7.53;;;6.83;;
1775;SDS011;885;42.626;23.200;2023-06-19T02:00:18;8.10;;;5.90;;
1775;SDS011;885;42.626;23.200;2023-06-19T02:02:45;8.03;;;5.93;;
1775;SDS011;885;42.626;23.200;2023-06-19T02:05:12;9.60;;;6.30;;
1775;SDS011;885;42.626;23.200;2023-06-19T02:07:40;7.87;;;6.00;;
1775;SDS011;885;42.626;23.200;2023-06-19T02:10:07;9.23;;;7.30;;
1775;SDS011;885;42.626;23.200;2023-06-19T02:12:35;10.03;;;7.43;;
1775;SDS011;885;42.626;23.200;2023-06-19T02:15:03;7.50;;;6.57;;
1775;SDS011;885;42.626;23.200;2023-06-19T02:17:31;7.90;;;7.07;;
1775;SDS011;885;42.626;23.200;2023-06-19T02:19:58;8.07;;;6.97;;
1775;SDS011;885;42.626;23.200;2023-06-19T02:22:25;11.00;;;7.80;;
1775;SDS011;885;42.626;23.200;2023-06-19T02:24:51;8.40;;;7.60;;
1775;SDS011;885;42.626;23.200;2023-06-19T02:27:18;9.17;;;7.83;;
1775;SDS011;885;42.626;23.200;2023-06-19T02:29:45;7.47;;;6.77;;
1775;SDS011;885;42.626;23.200;2023-06-19T02:32:13;8.33;;;6.70;;
1775;SDS011;885;42.626;23.200;2023-06-19T02:34:39;9.00;;;7.83;;
1775;SDS011;885;42.626;23.200;2023-06-19T02:37:06;9.97;;;7.00;;
1775;SDS011;885;42.626;23.200;2023-06-19T02:39:33;8.63;;;7.87;;
1775;SDS011;885;42.626;23.200;2023-06-19T02:42:00;10.87;;;8.23;;
1775;SDS011;885;42.626;23.200;2023-06-19T02:44:26;10.30;;;8.73;;
1775;SDS011;885;42.626;23.200;2023-06-19T02:46:53;9.63;;;7.53;;
1775;SDS011;885;42.626;23.200;2023-06-19T02:49:21;10.50;;;7.97;;
1775;SDS011;885;42.626;23.200;2023-06-19T02:51:48;9.50;;;7.87;;
1775;SDS011;885;42.626;23.200;2023-06-19T02:54:15;9.13;;;8.23;;
1775;SDS011;885;42.626;23.200;2023-06-19T02:56:41;8.67;;;7.43;;
1775;SDS011;885;42.626;23.200;2023-06-19T02:59:08;20.93;;;8.20;;
1775;SDS011;885;42.626;23.200;2023-06-19T03:01:35;11.33;;;7.97;;
1775;SDS011;885;42.626;23.200;2023-06-19T03:04:01;9.77;;;7.53;;
1775;SDS011;885;42.626;23.200;2023-06-19T03:06:30;9.00;;;7.00;;
1775;SDS011;885;42.626;23.200;2023-06-19T03:08:58;11.00;;;8.03;;
1775;SDS011;885;42.626;23.200;2023-06-19T03:11:25;8.90;;;8.10;;
1775;SDS011;885;42.626;23.200;2023-06-19T03:13:52;9.20;;;8.13;;
1775;SDS011;885;42.626;23.200;2023-06-19T03:16:20;9.50;;;8.60;;
1775;SDS011;885;42.626;23.200;2023-06-19T03:18:47;7.77;;;7.00;;
1775;SDS011;885;42.626;23.200;2023-06-19T03:21:15;8.13;;;7.33;;
1775;SDS011;885;42.626;23.200;2023-06-19T03:23:43;9.40;;;8.00;;
1775;SDS011;885;42.626;23.200;2023-06-19T03:26:10;8.60;;;7.80;;
1775;SDS011;885;42.626;23.200;2023-06-19T03:28:37;8.13;;;7.30;;
1775;SDS011;885;42.626;23.200;2023-06-19T03:31:04;10.33;;;8.60;;
1775;SDS011;885;42.626;23.200;2023-06-19T03:33:31;9.10;;;8.20;;
1775;SDS011;885;42.626;23.200;2023-06-19T03:35:57;11.23;;;9.47;;
1775;SDS011;885;42.626;23.200;2023-06-19T03:38:24;7.37;;;6.67;;
1775;SDS011;885;42.626;23.200;2023-06-19T03:40:52;8.13;;;7.33;;
1775;SDS011;885;42.626;23.200;2023-06-19T03:43:19;9.60;;;8.00;;
1775;SDS011;885;42.626;23.200;2023-06-19T03:45:45;8.47;;;7.67;;
1775;SDS011;885;42.626;23.200;2023-06-19T03:48:12;8.53;;;7.60;;
1775;SDS011;885;42.626;23.200;2023-06-19T03:50:39;8.67;;;7.83;;
1775;SDS011;885;42.626;23.200;2023-06-19T03:53:06;8.20;;;7.40;;
1775;SDS011;885;42.626;23.200;2023-06-19T03:55:32;9.70;;;8.70;;
1775;SDS011;885;42.626;23.200;2023-06-19T03:58:01;8.80;;;7.37;;
1775;SDS011;885;42.626;23.200;2023-06-19T04:00:28;8.80;;;7.80;;
1775;SDS011;885;42.626;23.200;2023-06-19T04:02:55;10.90;;;8.10;;
1775;SDS011;885;42.626;23.200;2023-06-19T04:05:22;9.47;;;8.27;;
1775;SDS011;885;42.626;23.200;2023-06-19T04:07:49;8.87;;;7.97;;
1775;SDS011;885;42.626;23.200;2023-06-19T04:10:16;8.60;;;7.80;;
1775;SDS011;885;42.626;23.200;2023-06-19T04:12:43;9.60;;;8.60;;
1775;SDS011;885;42.626;23.200;2023-06-19T04:15:11;9.60;;;8.43;;
1775;SDS011;885;42.626;23.200;2023-06-19T04:17:38;9.23;;;8.33;;
1775;SDS011;885;42.626;23.200;2023-06-19T04:20:06;10.53;;;8.73;;
1775;SDS011;885;42.626;23.200;2023-06-19T04:22:36;9.00;;;8.20;;
1775;SDS011;885;42.626;23.200;2023-06-19T04:25:03;9.83;;;8.70;;
1775;SDS011;885;42.626;23.200;2023-06-19T04:27:30;9.80;;;9.00;;
1775;SDS011;885;42.626;23.200;2023-06-19T04:29:57;10.90;;;8.47;;
1775;SDS011;885;42.626;23.200;2023-06-19T04:32:25;9.43;;;8.43;;
1775;SDS011;885;42.626;23.200;2023-06-19T04:34:52;10.03;;;8.27;;
1775;SDS011;885;42.626;23.200;2023-06-19T04:37:19;8.07;;;7.37;;
1775;SDS011;885;42.626;23.200;2023-06-19T04:39:45;9.20;;;8.30;;
1775;SDS011;885;42.626;23.200;2023-06-19T04:42:13;8.50;;;7.60;;
1775;SDS011;885;42.626;23.200;2023-06-19T04:44:44;9.10;;;8.20;;
1775;SDS011;885;42.626;23.200;2023-06-19T04:47:11;7.73;;;7.03;;
1775;SDS011;885;42.626;23.200;2023-06-19T04:49:39;14.83;;;8.07;;
1775;SDS011;885;42.626;23.200;2023-06-19T04:52:06;7.60;;;7.00;;
1775;SDS011;885;42.626;23.200;2023-06-19T04:54:33;7.90;;;7.20;;
1775;SDS011;885;42.626;23.200;2023-06-19T04:57:00;8.67;;;7.90;;
1775;SDS011;885;42.626;23.200;2023-06-19T04:59:27;7.57;;;6.87;;
1775;SDS011;885;42.626;23.200;2023-06-19T05:01:55;8.07;;;7.30;;
1775;SDS011;885;42.626;23.200;2023-06-19T05:04:22;8.80;;;7.50;;
1775;SDS011;885;42.626;23.200;2023-06-19T05:06:50;8.47;;;7.67;;
1775;SDS011;885;42.626;23.200;2023-06-19T05:09:17;8.13;;;7.43;;
1775;SDS011;885;42.626;23.200;2023-06-19T05:11:45;8.17;;;7.37;;
1775;SDS011;885;42.626;23.200;2023-06-19T05:14:11;9.10;;;8.20;;
1775;SDS011;885;42.626;23.200;2023-06-19T05:16:39;9.30;;;8.43;;
1775;SDS011;885;42.626;23.200;2023-06-19T05:19:06;9.63;;;7.90;;
1775;SDS011;885;42.626;23.200;2023-06-19T05:21:33;9.20;;;8.07;;
1775;SDS011;885;42.626;23.200;2023-06-19T05:24:01;11.63;;;8.30;;
1775;SDS011;885;42.626;23.200;2023-06-19T05:26:28;8.90;;;8.03;;
1775;SDS011;885;42.626;23.200;2023-06-19T05:28:55;8.90;;;8.00;;
1775;SDS011;885;42.626;23.200;2023-06-19T05:31:21;10.10;;;8.67;;
1775;SDS011;885;42.626;23.200;2023-06-19T05:33:48;8.63;;;7.50;;
1775;SDS011;885;42.626;23.200;2023-06-19T05:36:15;8.40;;;7.50;;
1775;SDS011;885;42.626;23.200;2023-06-19T05:38:42;9.60;;;8.60;;
1775;SDS011;885;42.626;23.200;2023-06-19T05:41:10;8.20;;;7.40;;
1775;SDS011;885;42.626;23.200;2023-06-19T05:43:36;10.33;;;8.60;;
1775;SDS011;885;42.626;23.200;2023-06-19T05:46:04;11.20;;;8.53;;
1775;SDS011;885;42.626;23.200;2023-06-19T05:48:31;8.93;;;8.10;;
1775;SDS011;885;42.626;23.200;2023-06-19T05:50:57;16.57;;;10.40;;
1775;SDS011;885;42.626;23.200;2023-06-19T05:53:24;11.50;;;10.30;;
1775;SDS011;885;42.626;23.200;2023-06-19T05:55:51;10.60;;;9.37;;
1775;SDS011;885;42.626;23.200;2023-06-19T05:58:19;10.10;;;9.00;;
1775;SDS011;885;42.626;23.200;2023-06-19T06:00:46;9.53;;;8.37;;
1775;SDS011;885;42.626;23.200;2023-06-19T06:03:13;12.53;;;7.60;;
1775;SDS011;885;42.626;23.200;2023-06-19T06:05:40;9.73;;;7.40;;
1775;SDS011;885;42.626;23.200;2023-06-19T06:08:08;8.40;;;7.40;;
1775;SDS011;885;42.626;23.200;2023-06-19T06:10:35;8.67;;;7.80;;
1775;SDS011;885;42.626;23.200;2023-06-19T06:13:01;20.67;;;11.13;;
1775;SDS011;885;42.626;23.200;2023-06-19T06:15:30;10.77;;;6.90;;
1775;SDS011;885;42.626;23.200;2023-06-19T06:17:56;7.53;;;6.77;;
1775;SDS011;885;42.626;23.200;2023-06-19T06:20:24;12.00;;;8.30;;
1775;SDS011;885;42.626;23.200;2023-06-19T06:22:52;7.10;;;6.40;;
1775;SDS011;885;42.626;23.200;2023-06-19T06:25:19;9.00;;;6.40;;
1775;SDS011;885;42.626;23.200;2023-06-19T06:27:46;9.13;;;6.57;;
1775;SDS011;885;42.626;23.200;2023-06-19T06:30:13;7.03;;;6.43;;
1775;SDS011;885;42.626;23.200;2023-06-19T06:32:41;5.87;;;5.37;;
1775;SDS011;885;42.626;23.200;2023-06-19T06:35:08;6.93;;;6.23;;
1775;SDS011;885;42.626;23.200;2023-06-19T06:37:35;7.47;;;6.23;;
1775;SDS011;885;42.626;23.200;2023-06-19T06:40:02;7.07;;;5.30;;
1775;SDS011;885;42.626;23.200;2023-06-19T06:42:33;6.43;;;5.83;;
1775;SDS011;885;42.626;23.200;2023-06-19T06:44:59;6.10;;;5.50;;
1775;SDS011;885;42.626;23.200;2023-06-19T06:47:26;5.80;;;5.30;;
1775;SDS011;885;42.626;23.200;2023-06-19T06:49:54;8.80;;;5.90;;
1775;SDS011;885;42.626;23.200;2023-06-19T06:52:21;7.33;;;6.40;;
1775;SDS011;885;42.626;23.200;2023-06-19T06:54:49;6.30;;;5.70;;
1775;SDS011;885;42.626;23.200;2023-06-19T06:57:16;5.97;;;5.47;;
1775;SDS011;885;42.626;23.200;2023-06-19T06:59:42;6.27;;;5.50;;
1775;SDS011;885;42.626;23.200;2023-06-19T07:02:09;6.50;;;5.90;;
1775;SDS011;885;42.626;23.200;2023-06-19T07:04:36;5.90;;;5.40;;
1775;SDS011;885;42.626;23.200;2023-06-19T07:07:04;6.60;;;6.10;;
1775;SDS011;885;42.626;23.200;2023-06-19T07:09:31;6.00;;;5.50;;
1775;SDS011;885;42.626;23.200;2023-06-19T07:11:58;6.20;;;5.60;;
1775;SDS011;885;42.626;23.200;2023-06-19T07:14:26;7.07;;;6.47;;
1775;SDS011;885;42.626;23.200;2023-06-19T07:16:53;5.50;;;5.00;;
1775;SDS011;885;42.626;23.200;2023-06-19T07:19:20;7.30;;;6.57;;
1775;SDS011;885;42.626;23.200;2023-06-19T07:21:47;7.13;;;6.00;;
1775;SDS011;885;42.626;23.200;2023-06-19T07:24:17;6.30;;;5.50;;
1775;SDS011;885;42.626;23.200;2023-06-19T07:26:45;6.73;;;5.73;;
1775;SDS011;885;42.626;23.200;2023-06-19T07:29:12;6.90;;;6.00;;
1775;SDS011;885;42.626;23.200;2023-06-19T07:31:38;6.83;;;6.13;;
1775;SDS011;885;42.626;23.200;2023-06-19T07:34:07;6.37;;;5.77;;
1775;SDS011;885;42.626;23.200;2023-06-19T07:36:34;6.53;;;5.30;;
1775;SDS011;885;42.626;23.200;2023-06-19T07:39:01;6.50;;;5.47;;
1775;SDS011;885;42.626;23.200;2023-06-19T07:41:29;6.20;;;5.07;;
1775;SDS011;885;42.626;23.200;2023-06-19T07:43:56;6.10;;;5.50;;
1775;SDS011;885;42.626;23.200;2023-06-19T07:46:23;6.07;;;5.50;;
1775;SDS011;885;42.626;23.200;2023-06-19T07:48:49;6.20;;;5.70;;
1775;SDS011;885;42.626;23.200;2023-06-19T07:51:16;7.80;;;5.67;;
1775;SDS011;885;42.626;23.200;2023-06-19T07:53:43;6.80;;;6.20;;
1775;SDS011;885;42.626;23.200;2023-06-19T07:56:10;5.47;;;4.97;;
1775;SDS011;885;42.626;23.200;2023-06-19T07:59:02;7.03;;;6.43;;
1775;SDS011;885;42.626;23.200;2023-06-19T08:01:29;8.53;;;4.97;;
1775;SDS011;885;42.626;23.200;2023-06-19T08:03:56;5.00;;;4.50;;
1775;SDS011;885;42.626;23.200;2023-06-19T08:06:22;5.73;;;4.63;;
1775;SDS011;885;42.626;23.200;2023-06-19T08:08:49;4.53;;;4.13;;
1775;SDS011;885;42.626;23.200;2023-06-19T08:11:16;5.80;;;4.50;;
1775;SDS011;885;42.626;23.200;2023-06-19T08:13:43;4.77;;;4.37;;
1775;SDS011;885;42.626;23.200;2023-06-19T08:16:11;3.90;;;3.60;;
1775;SDS011;885;42.626;23.200;2023-06-19T08:18:38;4.17;;;3.80;;
1775;SDS011;885;42.626;23.200;2023-06-19T08:21:05;4.53;;;4.10;;
1775;SDS011;885;42.626;23.200;2023-06-19T08:23:31;4.70;;;4.30;;
1775;SDS011;885;42.626;23.200;2023-06-19T08:25:58;5.23;;;3.90;;
1775;SDS011;885;42.626;23.200;2023-06-19T08:28:25;4.30;;;3.90;;
1775;SDS011;885;42.626;23.200;2023-06-19T08:30:52;12.20;;;4.23;;
1775;SDS011;885;42.626;23.200;2023-06-19T08:33:20;4.17;;;3.77;;
1775;SDS011;885;42.626;23.200;2023-06-19T08:35:47;4.40;;;4.00;;
1775;SDS011;885;42.626;23.200;2023-06-19T08:38:14;5.03;;;3.67;;
1775;SDS011;885;42.626;23.200;2023-06-19T08:40:41;4.17;;;3.87;;
1775;SDS011;885;42.626;23.200;2023-06-19T08:43:08;4.23;;;3.93;;
1775;SDS011;885;42.626;23.200;2023-06-19T08:45:35;4.83;;;4.33;;
1775;SDS011;885;42.626;23.200;2023-06-19T08:48:02;4.10;;;3.77;;
1775;SDS011;885;42.626;23.200;2023-06-19T08:50:31;4.70;;;4.30;;
1775;SDS011;885;42.626;23.200;2023-06-19T08:52:58;4.77;;;4.07;;
1775;SDS011;885;42.626;23.200;2023-06-19T08:55:25;4.33;;;3.93;;
1775;SDS011;885;42.626;23.200;2023-06-19T08:57:52;4.07;;;3.77;;
1775;SDS011;885;42.626;23.200;2023-06-19T09:00:22;7.00;;;4.50;;
1775;SDS011;885;42.626;23.200;2023-06-19T09:02:50;4.20;;;3.80;;
1775;SDS011;885;42.626;23.200;2023-06-19T09:05:17;8.20;;;4.50;;
1775;SDS011;885;42.626;23.200;2023-06-19T09:07:53;5.10;;;4.33;;
1775;SDS011;885;42.626;23.200;2023-06-19T09:10:22;4.60;;;4.20;;
1775;SDS011;885;42.626;23.200;2023-06-19T09:12:59;4.37;;;3.97;;
1775;SDS011;885;42.626;23.200;2023-06-19T09:15:27;4.03;;;3.73;;
1775;SDS011;885;42.626;23.200;2023-06-19T09:18:05;4.30;;;3.90;;
1775;SDS011;885;42.626;23.200;2023-06-19T09:20:33;4.60;;;4.20;;
1775;SDS011;885;42.626;23.200;2023-06-19T09:23:02;4.17;;;3.80;;
1775;SDS011;885;42.626;23.200;2023-06-19T09:25:29;4.63;;;4.10;;
1775;SDS011;885;42.626;23.200;2023-06-19T09:27:56;4.37;;;3.90;;
1775;SDS011;885;42.626;23.200;2023-06-19T09:30:23;4.93;;;4.43;;
1775;SDS011;885;42.626;23.200;2023-06-19T09:32:50;5.40;;;4.03;;
1775;SDS011;885;42.626;23.200;2023-06-19T09:35:17;4.70;;;4.20;;
1775;SDS011;885;42.626;23.200;2023-06-19T09:37:43;5.80;;;4.20;;
1775;SDS011;885;42.626;23.200;2023-06-19T09:40:13;3.87;;;3.30;;
1775;SDS011;885;42.626;23.200;2023-06-19T09:42:40;4.87;;;4.00;;
1775;SDS011;885;42.626;23.200;2023-06-19T09:45:09;4.13;;;3.73;;
1775;SDS011;885;42.626;23.200;2023-06-19T09:47:38;8.20;;;6.20;;
1775;SDS011;885;42.626;23.200;2023-06-19T09:50:09;4.97;;;4.10;;
1775;SDS011;885;42.626;23.200;2023-06-19T09:52:38;4.23;;;3.83;;
1775;SDS011;885;42.626;23.200;2023-06-19T09:55:06;5.57;;;3.70;;
1775;SDS011;885;42.626;23.200;2023-06-19T09:57:35;3.93;;;3.53;;
1775;SDS011;885;42.626;23.200;2023-06-19T10:00:04;4.53;;;4.10;;
1775;SDS011;885;42.626;23.200;2023-06-19T10:02:36;4.80;;;3.80;;
1775;SDS011;885;42.626;23.200;2023-06-19T10:05:04;4.70;;;4.10;;
1775;SDS011;885;42.626;23.200;2023-06-19T10:07:34;4.53;;;4.13;;
1775;SDS011;885;42.626;23.200;2023-06-19T10:10:02;5.33;;;4.20;;
1775;SDS011;885;42.626;23.200;2023-06-19T10:12:40;6.00;;;4.17;;
1775;SDS011;885;42.626;23.200;2023-06-19T10:15:12;4.70;;;4.30;;
1775;SDS011;885;42.626;23.200;2023-06-19T10:17:42;3.80;;;3.50;;
1775;SDS011;885;42.626;23.200;2023-06-19T10:20:20;4.33;;;3.93;;
1775;SDS011;885;42.626;23.200;2023-06-19T10:22:52;5.87;;;5.03;;
1775;SDS011;885;42.626;23.200;2023-06-19T10:25:22;4.70;;;4.30;;
1775;SDS011;885;42.626;23.200;2023-06-19T10:27:51;5.10;;;4.23;;
1775;SDS011;885;42.626;23.200;2023-06-19T10:30:19;4.73;;;4.20;;
1775;SDS011;885;42.626;23.200;2023-06-19T10:32:46;6.33;;;4.80;;
1775;SDS011;885;42.626;23.200;2023-06-19T10:35:14;4.90;;;3.77;;
1775;SDS011;885;42.626;23.200;2023-06-19T10:37:41;4.77;;;3.67;;
1775;SDS011;885;42.626;23.200;2023-06-19T10:40:09;3.93;;;3.53;;
1775;SDS011;885;42.626;23.200;2023-06-19T10:42:37;4.70;;;4.20;;
1775;SDS011;885;42.626;23.200;2023-06-19T10:45:07;4.33;;;3.63;;
1775;SDS011;885;42.626;23.200;2023-06-19T10:47:35;3.50;;;3.10;;
1775;SDS011;885;42.626;23.200;2023-06-19T10:50:04;3.77;;;3.47;;
1775;SDS011;885;42.626;23.200;2023-06-19T10:52:31;6.53;;;4.20;;
1775;SDS011;885;42.626;23.200;2023-06-19T10:54:59;4.77;;;4.33;;
1775;SDS011;885;42.626;23.200;2023-06-19T10:57:26;4.53;;;4.13;;
1775;SDS011;885;42.626;23.200;2023-06-19T10:59:54;4.40;;;4.00;;
1775;SDS011;885;42.626;23.200;2023-06-19T11:02:22;4.73;;;4.17;;
1775;SDS011;885;42.626;23.200;2023-06-19T11:04:51;4.10;;;3.70;;
1775;SDS011;885;42.626;23.200;2023-06-19T11:07:18;4.13;;;3.73;;
1775;SDS011;885;42.626;23.200;2023-06-19T11:09:45;4.37;;;3.97;;
1775;SDS011;885;42.626;23.200;2023-06-19T11:12:18;4.57;;;3.83;;
1775;SDS011;885;42.626;23.200;2023-06-19T11:14:45;4.50;;;4.10;;
1775;SDS011;885;42.626;23.200;2023-06-19T11:17:13;5.07;;;4.40;;
1775;SDS011;885;42.626;23.200;2023-06-19T11:19:41;4.77;;;4.07;;
1775;SDS011;885;42.626;23.200;2023-06-19T11:22:09;4.50;;;4.10;;
1775;SDS011;885;42.626;23.200;2023-06-19T11:24:37;4.70;;;3.80;;
1775;SDS011;885;42.626;23.200;2023-06-19T11:27:13;6.20;;;5.10;;
1775;SDS011;885;42.626;23.200;2023-06-19T11:29:43;4.70;;;4.30;;
1775;SDS011;885;42.626;23.200;2023-06-19T11:32:12;7.60;;;5.30;;
1775;SDS011;885;42.626;23.200;2023-06-19T11:34:42;5.73;;;5.20;;
1775;SDS011;885;42.626;23.200;2023-06-19T11:37:13;7.40;;;5.47;;
1775;SDS011;885;42.626;23.200;2023-06-19T11:39:40;4.60;;;4.20;;
1775;SDS011;885;42.626;23.200;2023-06-19T11:42:06;5.63;;;4.80;;
1775;SDS011;885;42.626;23.200;2023-06-19T11:44:34;4.40;;;4.00;;
1775;SDS011;885;42.626;23.200;2023-06-19T11:47:00;5.53;;;4.70;;
1775;SDS011;885;42.626;23.200;2023-06-19T11:49:28;5.53;;;5.03;;
1775;SDS011;885;42.626;23.200;2023-06-19T11:52:02;4.90;;;4.40;;
1775;SDS011;885;42.626;23.200;2023-06-19T11:54:30;5.57;;;5.00;;
1775;SDS011;885;42.626;23.200;2023-06-19T11:56:56;5.63;;;4.87;;
1775;SDS011;885;42.626;23.200;2023-06-19T11:59:23;5.43;;;4.93;;
1775;SDS011;885;42.626;23.200;2023-06-19T12:01:50;5.23;;;4.73;;
1775;SDS011;885;42.626;23.200;2023-06-19T12:04:16;5.83;;;4.53;;
1775;SDS011;885;42.626;23.200;2023-06-19T12:06:43;4.20;;;3.80;;
1775;SDS011;885;42.626;23.200;2023-06-19T12:09:11;4.13;;;3.83;;
1775;SDS011;885;42.626;23.200;2023-06-19T12:11:38;5.23;;;4.60;;
1775;SDS011;885;42.626;23.200;2023-06-19T12:14:05;4.77;;;4.23;;
1775;SDS011;885;42.626;23.200;2023-06-19T12:16:31;6.40;;;4.10;;
1775;SDS011;885;42.626;23.200;2023-06-19T12:18:58;5.00;;;4.60;;
1775;SDS011;885;42.626;23.200;2023-06-19T12:21:25;4.40;;;4.00;;
1775;SDS011;885;42.626;23.200;2023-06-19T12:23:52;5.63;;;4.40;;
1775;SDS011;885;42.626;23.200;2023-06-19T12:26:20;4.87;;;4.47;;
1775;SDS011;885;42.626;23.200;2023-06-19T12:28:49;4.47;;;4.03;;
1775;SDS011;885;42.626;23.200;2023-06-19T12:31:16;5.40;;;4.27;;
1775;SDS011;885;42.626;23.200;2023-06-19T12:33:43;4.70;;;4.20;;
1775;SDS011;885;42.626;23.200;2023-06-19T12:36:13;5.80;;;4.90;;
1775;SDS011;885;42.626;23.200;2023-06-19T12:38:39;7.03;;;4.87;;
1775;SDS011;885;42.626;23.200;2023-06-19T12:41:06;4.73;;;4.33;;
1775;SDS011;885;42.626;23.200;2023-06-19T12:43:34;5.13;;;4.20;;
1775;SDS011;885;42.626;23.200;2023-06-19T12:46:01;4.40;;;4.00;;
1775;SDS011;885;42.626;23.200;2023-06-19T12:48:28;8.10;;;4.43;;
1775;SDS011;885;42.626;23.200;2023-06-19T12:50:55;5.20;;;4.40;;
1775;SDS011;885;42.626;23.200;2023-06-19T12:53:21;5.27;;;4.77;;
1775;SDS011;885;42.626;23.200;2023-06-19T12:55:51;5.27;;;4.40;;
1775;SDS011;885;42.626;23.200;2023-06-19T12:58:19;6.00;;;4.53;;
1775;SDS011;885;42.626;23.200;2023-06-19T13:00:47;5.70;;;4.20;;
1775;SDS011;885;42.626;23.200;2023-06-19T13:03:14;4.93;;;4.43;;
1775;SDS011;885;42.626;23.200;2023-06-19T13:05:40;4.00;;;3.63;;
1775;SDS011;885;42.626;23.200;2023-06-19T13:08:07;5.07;;;4.33;;
1775;SDS011;885;42.626;23.200;2023-06-19T13:10:34;4.13;;;3.70;;
1775;SDS011;885;42.626;23.200;2023-06-19T13:13:01;4.97;;;4.30;;
1775;SDS011;885;42.626;23.200;2023-06-19T13:15:27;4.53;;;3.90;;
1775;SDS011;885;42.626;23.200;2023-06-19T13:17:55;4.93;;;4.03;;
1775;SDS011;885;42.626;23.200;2023-06-19T13:20:22;6.00;;;4.77;;
1775;SDS011;885;42.626;23.200;2023-06-19T13:22:49;6.33;;;4.80;;
1775;SDS011;885;42.626;23.200;2023-06-19T13:25:17;4.47;;;4.07;;
1775;SDS011;885;42.626;23.200;2023-06-19T13:27:43;4.20;;;3.80;;
1775;SDS011;885;42.626;23.200;2023-06-19T13:30:11;4.50;;;4.10;;
1775;SDS011;885;42.626;23.200;2023-06-19T13:32:38;4.27;;;3.90;;
1775;SDS011;885;42.626;23.200;2023-06-19T13:35:07;4.53;;;4.13;;
1775;SDS011;885;42.626;23.200;2023-06-19T13:37:35;4.30;;;3.90;;
1775;SDS011;885;42.626;23.200;2023-06-19T13:40:04;4.67;;;4.27;;
1775;SDS011;885;42.626;23.200;2023-06-19T13:42:32;4.30;;;3.90;;
1775;SDS011;885;42.626;23.200;2023-06-19T13:45:00;4.37;;;3.97;;
1775;SDS011;885;42.626;23.200;2023-06-19T13:47:27;4.17;;;3.60;;
1775;SDS011;885;42.626;23.200;2023-06-19T13:49:53;4.40;;;4.00;;
1775;SDS011;885;42.626;23.200;2023-06-19T13:52:22;4.77;;;4.27;;
1775;SDS011;885;42.626;23.200;2023-06-19T13:54:49;4.20;;;3.80;;
1775;SDS011;885;42.626;23.200;2023-06-19T13:57:15;5.03;;;3.50;;
1775;SDS011;885;42.626;23.200;2023-06-19T13:59:42;6.90;;;4.03;;
1775;SDS011;885;42.626;23.200;2023-06-19T14:02:09;4.47;;;3.80;;
1775;SDS011;885;42.626;23.200;2023-06-19T14:04:36;4.23;;;3.83;;
1775;SDS011;885;42.626;23.200;2023-06-19T14:07:03;5.13;;;3.80;;
1775;SDS011;885;42.626;23.200;2023-06-19T14:09:32;4.40;;;4.00;;
1775;SDS011;885;42.626;23.200;2023-06-19T14:11:58;4.30;;;3.90;;
1775;SDS011;885;42.626;23.200;2023-06-19T14:14:25;6.00;;;3.90;;
1775;SDS011;885;42.626;23.200;2023-06-19T14:16:52;4.23;;;3.80;;
1775;SDS011;885;42.626;23.200;2023-06-19T14:19:19;4.27;;;3.67;;
1775;SDS011;885;42.626;23.200;2023-06-19T14:21:45;4.13;;;3.73;;
1775;SDS011;885;42.626;23.200;2023-06-19T14:24:12;5.60;;;4.50;;
1775;SDS011;885;42.626;23.200;2023-06-19T14:26:40;4.47;;;4.07;;
1775;SDS011;885;42.626;23.200;2023-06-19T14:29:07;3.87;;;3.57;;
1775;SDS011;885;42.626;23.200;2023-06-19T14:31:34;4.60;;;4.20;;
1775;SDS011;885;42.626;23.200;2023-06-19T14:34:00;4.40;;;3.83;;
1775;SDS011;885;42.626;23.200;2023-06-19T14:36:27;4.87;;;4.37;;
1775;SDS011;885;42.626;23.200;2023-06-19T14:38:54;6.13;;;3.93;;
1775;SDS011;885;42.626;23.200;2023-06-19T14:41:21;4.30;;;3.90;;
1775;SDS011;885;42.626;23.200;2023-06-19T14:43:49;4.80;;;4.30;;
1775;SDS011;885;42.626;23.200;2023-06-19T14:46:16;5.60;;;4.33;;
1775;SDS011;885;42.626;23.200;2023-06-19T14:48:43;5.20;;;4.77;;
1775;SDS011;885;42.626;23.200;2023-06-19T14:51:09;4.20;;;3.80;;
1775;SDS011;885;42.626;23.200;2023-06-19T14:53:38;6.30;;;4.47;;
1775;SDS011;885;42.626;23.200;2023-06-19T14:56:05;4.53;;;4.13;;
1775;SDS011;885;42.626;23.200;2023-06-19T14:58:32;4.40;;;4.00;;
1775;SDS011;885;42.626;23.200;2023-06-19T15:01:00;5.07;;;4.67;;
1775;SDS011;885;42.626;23.200;2023-06-19T15:03:27;4.57;;;4.17;;
1775;SDS011;885;42.626;23.200;2023-06-19T15:05:54;4.90;;;4.20;;
1775;SDS011;885;42.626;23.200;2023-06-19T15:08:21;5.13;;;4.63;;
1775;SDS011;885;42.626;23.200;2023-06-19T15:10:49;5.30;;;4.10;;
1775;SDS011;885;42.626;23.200;2023-06-19T15:13:16;4.50;;;4.10;;
1775;SDS011;885;42.626;23.200;2023-06-19T15:15:42;4.87;;;4.47;;
1775;SDS011;885;42.626;23.200;2023-06-19T15:18:11;5.63;;;4.00;;